Time;durP1;ratioP1;P1;durP2;ratioP2;P2;SDS_P1;SDS_P2;PMS_P1;PMS_P2;Temp;Humidity;BMP_temperature;BMP_pressure;BME280_temperature;BME280_humidity;BME280_pressure;Samples;Min_cycle;Max_cycle;Signal;HPM_P1;HPM_P2
2022/07/09 00:01:28;;;;;;;9.38;8.48;;;;;;;21.91;50.68;102720.69;5050964;28;20044;-65
2022/07/09 00:03:56;;;;;;;9.95;8.95;;;;;;;21.85;50.71;102711.16;5051512;28;20116;-65
2022/07/09 00:06:23;;;;;;;13.27;9.35;;;;;;;21.80;50.52;102718.94;5051486;28;20491;-64
2022/07/09 00:08:49;;;;;;;13.15;9.55;;;;;;;21.74;50.55;102707.66;5051470;28;20045;-65
2022/07/09 00:11:16;;;;;;;10.00;8.70;;;;;;;21.66;51.11;102708.34;5051850;28;20060;-64
2022/07/09 00:13:42;;;;;;;11.82;8.20;;;;;;;21.62;51.01;102706.03;5051491;28;20057;-64
2022/07/09 00:16:09;;;;;;;10.25;8.60;;;;;;;21.56;50.99;102702.84;5050934;28;20167;-64
2022/07/09 00:18:36;;;;;;;12.65;9.00;;;;;;;21.53;51.20;102700.34;5051230;28;20098;-65
2022/07/09 00:21:03;;;;;;;10.18;9.18;;;;;;;21.49;50.91;102696.13;5051348;28;20040;-65
2022/07/09 00:23:33;;;;;;;12.38;9.75;;;;;;;21.43;50.91;102701.28;5051559;28;20044;-65
2022/07/09 00:26:00;;;;;;;12.68;9.82;;;;;;;21.39;51.17;102694.34;5049408;28;20081;-65
2022/07/09 00:28:26;;;;;;;10.75;9.65;;;;;;;21.36;51.05;102690.03;5051540;28;20041;-65
2022/07/09 00:30:53;;;;;;;16.10;10.93;;;;;;;21.34;51.59;102696.63;5052288;28;20051;-64
2022/07/09 00:33:24;;;;;;;13.75;9.82;;;;;;;21.30;51.65;102696.03;5051355;28;20048;-65
2022/07/09 00:35:51;;;;;;;13.27;10.48;;;;;;;21.26;51.23;102697.28;5050804;28;20061;-65
2022/07/09 00:38:17;;;;;;;13.38;10.68;;;;;;;21.20;51.02;102695.06;5052397;28;20055;-65
2022/07/09 00:40:44;;;;;;;12.52;11.18;;;;;;;21.16;51.67;102693.59;5052694;28;20045;-65
2022/07/09 00:43:19;;;;;;;14.35;10.90;;;;;;;21.10;51.97;102695.00;5052467;28;20052;-65
2022/07/09 00:45:46;;;;;;;13.38;10.35;;;;;;;21.06;51.75;102707.19;5052626;28;20502;-64
2022/07/09 00:48:14;;;;;;;13.00;9.77;;;;;;;21.04;52.03;102711.06;5052532;28;20112;-65
2022/07/09 00:50:42;;;;;;;12.20;10.50;;;;;;;21.02;51.82;102697.53;5050078;28;20140;-65
2022/07/09 00:53:14;;;;;;;11.93;10.05;;;;;;;20.97;52.11;102704.38;5051567;28;20451;-64
2022/07/09 00:55:44;;;;;;;12.85;11.52;;;;;;;20.90;52.31;102704.03;5051114;28;20067;-65
2022/07/09 00:58:18;;;;;;;12.20;10.02;;;;;;;20.82;52.08;102703.84;5051269;28;20553;-65
2022/07/09 01:00:45;;;;;;;11.25;10.07;;;;;;;20.77;51.81;102697.88;5050869;28;20037;-65
2022/07/09 01:03:13;;;;;;;13.57;10.18;;;;;;;20.72;52.28;102694.66;5051624;28;20490;-65
2022/07/09 01:05:40;;;;;;;15.85;11.45;;;;;;;20.71;52.33;102695.66;5051159;28;20045;-64
2022/07/09 01:08:08;;;;;;;13.80;11.50;;;;;;;20.68;52.24;102690.47;5051655;28;20158;-65
2022/07/09 01:10:35;;;;;;;16.63;11.07;;;;;;;20.65;52.18;102691.59;5051123;28;20399;-67
2022/07/09 01:13:11;;;;;;;13.18;11.85;;;;;;;20.63;52.43;102690.84;5051473;28;20053;-65
2022/07/09 01:15:37;;;;;;;14.60;11.40;;;;;;;20.61;52.59;102692.84;5051286;28;20796;-65
2022/07/09 01:18:04;;;;;;;17.63;12.38;;;;;;;20.60;52.69;102689.25;5051581;28;20040;-65
2022/07/09 01:20:31;;;;;;;18.73;11.80;;;;;;;20.59;52.58;102690.25;5051200;28;20045;-65
2022/07/09 01:23:02;;;;;;;14.52;11.80;;;;;;;20.59;53.01;102682.06;5051517;28;20041;-65
2022/07/09 01:25:45;;;;;;;19.10;12.52;;;;;;;20.60;52.93;102685.66;5051611;28;20400;-64
2022/07/09 01:28:12;;;;;;;13.30;11.77;;;;;;;20.58;52.69;102685.78;5050713;28;20041;-65
2022/07/09 01:30:40;;;;;;;18.27;12.75;;;;;;;20.55;52.93;102687.91;5053828;28;20048;-64
2022/07/09 01:33:10;;;;;;;13.75;12.23;;;;;;;20.50;52.96;102677.38;5054030;28;20044;-65
2022/07/09 01:35:36;;;;;;;16.50;13.43;;;;;;;20.47;53.02;102687.69;5053987;28;20059;-65
2022/07/09 01:38:03;;;;;;;16.38;13.13;;;;;;;20.44;52.98;102675.16;5054123;28;20052;-64
2022/07/09 01:40:30;;;;;;;14.02;11.70;;;;;;;20.39;52.90;102671.03;5053734;28;20116;-65
2022/07/09 01:42:58;;;;;;;13.18;11.68;;;;;;;20.36;53.26;102666.72;5054062;28;20091;-65
2022/07/09 01:45:25;;;;;;;13.57;11.35;;;;;;;20.33;53.16;102666.97;5053973;28;20045;-65
2022/07/09 01:47:51;;;;;;;16.83;12.02;;;;;;;20.33;53.33;102666.09;5053813;28;20044;-65
2022/07/09 01:50:18;;;;;;;13.52;11.95;;;;;;;20.30;53.02;102669.94;5053899;28;20432;-65
2022/07/09 01:52:46;;;;;;;16.20;12.07;;;;;;;20.28;53.19;102670.09;5054045;28;20041;-64
2022/07/09 01:55:12;;;;;;;17.65;12.73;;;;;;;20.25;53.14;102669.47;5052788;28;20052;-64
2022/07/09 01:57:39;;;;;;;15.65;12.60;;;;;;;20.23;53.61;102666.00;5053491;28;20063;-65
2022/07/09 02:00:06;;;;;;;13.60;12.20;;;;;;;20.19;53.35;102662.66;5053742;28;20041;-66
2022/07/09 02:02:42;;;;;;;14.48;11.80;;;;;;;20.17;53.53;102664.66;5053521;28;20494;-65
2022/07/09 02:05:08;;;;;;;14.77;12.30;;;;;;;20.18;53.54;102663.66;5053572;28;20063;-64
2022/07/09 02:07:35;;;;;;;17.02;12.50;;;;;;;20.13;53.42;102660.44;5053548;28;20041;-64
2022/07/09 02:10:04;;;;;;;17.70;12.23;;;;;;;20.10;53.78;102657.97;5053604;28;20041;-65
2022/07/09 02:12:34;;;;;;;13.82;12.35;;;;;;;20.07;53.83;102650.03;5053603;28;20136;-66
2022/07/09 02:15:01;;;;;;;17.50;12.23;;;;;;;20.06;53.40;102658.31;5053609;28;20045;-65
2022/07/09 02:17:27;;;;;;;13.30;11.90;;;;;;;20.02;53.42;102644.06;5054173;28;20049;-65
2022/07/09 02:19:54;;;;;;;16.05;11.60;;;;;;;19.99;53.51;102644.31;5053308;28;20055;-65
2022/07/09 02:22:20;;;;;;;13.50;11.32;;;;;;;19.97;53.71;102649.03;5053584;28;20053;-68
2022/07/09 02:24:47;;;;;;;12.18;10.98;;;;;;;19.94;53.96;102647.44;5053447;28;20127;-65
2022/07/09 02:27:13;;;;;;;12.80;10.82;;;;;;;19.91;53.83;102644.97;5053798;28;20037;-65
2022/07/09 02:29:40;;;;;;;12.98;11.07;;;;;;;19.91;53.75;102644.09;5053287;28;20041;-65
2022/07/09 02:32:10;;;;;;;12.93;10.90;;;;;;;19.91;53.99;102638.63;5053134;28;20068;-66
2022/07/09 02:34:37;;;;;;;13.75;10.98;;;;;;;19.91;54.02;102634.03;5053333;28;20499;-64
2022/07/09 02:37:05;;;;;;;15.27;11.10;;;;;;;19.92;53.83;102634.91;5052325;28;20053;-64
2022/07/09 02:39:32;;;;;;;12.23;10.93;;;;;;;19.93;54.02;102642.97;5052527;28;20482;-64
2022/07/09 02:41:58;;;;;;;14.55;11.02;;;;;;;19.95;54.14;102637.38;5052829;28;20037;-65
2022/07/09 02:44:25;;;;;;;14.65;11.98;;;;;;;19.95;53.84;102637.38;5053313;28;20045;-64
2022/07/09 02:46:52;;;;;;;17.25;13.38;;;;;;;19.92;54.04;102632.19;5053060;28;20049;-64
2022/07/09 02:49:21;;;;;;;22.95;14.57;;;;;;;19.88;53.97;102634.31;5052970;28;20049;-65
2022/07/09 02:51:47;;;;;;;17.05;13.65;;;;;;;19.79;54.12;102635.06;5052453;28;20049;-65
2022/07/09 02:54:14;;;;;;;14.52;12.93;;;;;;;19.72;54.20;102631.09;5053053;28;20055;-65
2022/07/09 02:56:41;;;;;;;15.10;12.52;;;;;;;19.68;54.46;102627.75;5052823;28;20052;-65
2022/07/09 02:59:07;;;;;;;14.50;12.05;;;;;;;19.67;54.52;102626.03;5052542;28;20135;-64
2022/07/09 03:01:34;;;;;;;15.73;11.63;;;;;;;19.68;54.62;102624.16;5052598;28;20079;-65
2022/07/09 03:04:05;;;;;;;13.73;10.95;;;;;;;19.71;54.69;102628.50;5053057;28;20041;-64
2022/07/09 03:06:31;;;;;;;17.17;12.15;;;;;;;19.74;54.64;102625.53;5051878;28;20098;-64
2022/07/09 03:08:58;;;;;;;14.85;12.05;;;;;;;19.75;54.66;102621.81;5052356;28;20403;-64
2022/07/09 03:11:24;;;;;;;15.25;11.90;;;;;;;19.79;54.45;102615.09;5052522;28;20041;-64
2022/07/09 03:13:55;;;;;;;17.00;11.77;;;;;;;19.79;54.51;102617.84;5052485;28;20045;-65
2022/07/09 03:16:22;;;;;;;15.63;12.05;;;;;;;19.81;54.38;102613.13;5052217;28;20048;-65
2022/07/09 03:18:48;;;;;;;20.08;13.65;;;;;;;19.79;54.08;102613.25;5052694;28;20037;-65
2022/07/09 03:21:15;;;;;;;17.52;13.77;;;;;;;19.79;54.24;102615.09;5052086;28;20037;-65
2022/07/09 03:23:46;;;;;;;19.25;14.85;;;;;;;19.76;54.49;102621.69;5052260;28;20406;-65
2022/07/09 03:26:13;;;;;;;16.42;12.57;;;;;;;19.74;54.33;102620.06;5052457;28;20056;-65
2022/07/09 03:28:40;;;;;;;15.38;12.05;;;;;;;19.69;54.45;102623.16;5052096;28;20045;-66
2022/07/09 03:31:06;;;;;;;38.08;12.43;;;;;;;19.66;54.35;102629.75;5052343;28;20045;-65
2022/07/09 03:33:33;;;;;;;12.15;9.48;;;;;;;19.60;54.66;102630.25;5052250;28;20056;-65
2022/07/09 03:35:59;;;;;;;10.32;9.32;;;;;;;19.56;54.67;102634.19;5051812;28;20387;-64
2022/07/09 03:38:26;;;;;;;11.40;8.98;;;;;;;19.52;54.26;102640.00;5052664;28;20131;-65
2022/07/09 03:40:53;;;;;;;11.93;9.77;;;;;;;19.47;54.58;102634.91;5052002;28;20072;-66
2022/07/09 03:43:20;;;;;;;11.98;10.57;;;;;;;19.44;54.66;102632.44;5052240;28;20403;-65
2022/07/09 03:45:47;;;;;;;12.63;10.38;;;;;;;19.41;54.20;102629.09;5051829;28;20077;-65
2022/07/09 03:48:13;;;;;;;12.90;11.23;;;;;;;19.35;54.21;102623.16;5050824;28;20041;-65
2022/07/09 03:50:40;;;;;;;14.50;12.18;;;;;;;19.32;54.24;102630.66;5051838;28;20043;-66
2022/07/09 03:53:11;;;;;;;13.32;11.77;;;;;;;19.29;54.47;102631.78;5051182;28;20037;-65
2022/07/09 03:55:37;;;;;;;15.93;12.63;;;;;;;19.26;54.42;102629.28;5051740;28;20037;-64
2022/07/09 03:58:04;;;;;;;12.35;11.15;;;;;;;19.24;54.23;102622.22;5052523;28;20084;-65
2022/07/09 04:00:31;;;;;;;15.73;10.32;;;;;;;19.21;54.59;102634.25;5051970;28;20037;-64
2022/07/09 04:03:00;;;;;;;13.65;10.23;;;;;;;19.18;54.73;102633.63;5051289;28;20501;-65
2022/07/09 04:05:27;;;;;;;10.73;8.77;;;;;;;19.16;54.40;102635.59;5051888;28;20104;-64
2022/07/09 04:07:53;;;;;;;9.23;7.93;;;;;;;19.14;54.65;102632.13;5051761;28;20037;-66
2022/07/09 04:10:20;;;;;;;9.45;8.45;;;;;;;19.12;55.09;102637.69;5051201;28;20431;-65
2022/07/09 04:12:48;;;;;;;9.18;7.82;;;;;;;19.11;54.89;102632.38;5051720;28;20503;-65
2022/07/09 04:15:15;;;;;;;11.95;10.15;;;;;;;19.13;54.95;102627.66;5051572;28;20057;-65
2022/07/09 04:17:41;;;;;;;12.98;11.30;;;;;;;19.15;55.17;102629.28;5051047;28;20076;-65
2022/07/09 04:20:09;;;;;;;14.30;12.52;;;;;;;19.18;55.30;102633.63;5051245;28;20151;-64
2022/07/09 04:22:36;;;;;;;12.25;10.95;;;;;;;19.19;55.44;102630.78;5051537;28;20071;-65
2022/07/09 04:25:03;;;;;;;14.32;11.95;;;;;;;19.22;55.23;102632.38;5051426;28;20052;-64
2022/07/09 04:27:30;;;;;;;13.40;11.82;;;;;;;19.24;55.22;102631.28;5051654;28;20399;-63
2022/07/09 04:29:57;;;;;;;14.23;12.65;;;;;;;19.27;55.40;102627.44;5051383;28;20037;-63
2022/07/09 04:34:57;;;;;;;16.95;14.02;;;;;;;19.39;56.08;102623.75;5051049;28;20056;-64
2022/07/09 04:37:24;;;;;;;21.15;15.00;;;;;;;19.45;56.39;102630.59;5051174;28;20056;-63
2022/07/09 04:39:51;;;;;;;16.50;14.75;;;;;;;19.48;56.29;102623.03;5051770;28;20124;-63
2022/07/09 04:42:19;;;;;;;22.35;16.67;;;;;;;19.52;56.39;102623.63;5051663;28;20033;-64
2022/07/09 04:44:48;;;;;;;19.60;15.65;;;;;;;19.50;56.65;102629.22;5051451;28;20152;-63
2022/07/09 04:47:15;;;;;;;21.67;16.05;;;;;;;19.54;57.00;102621.69;5051263;28;20061;-63
2022/07/09 04:49:42;;;;;;;21.13;16.33;;;;;;;19.55;56.53;102627.03;5051291;28;20394;-63
2022/07/09 04:52:08;;;;;;;23.10;16.55;;;;;;;19.56;57.11;102617.84;5051264;28;20483;-63
2022/07/09 04:54:39;;;;;;;20.48;17.05;;;;;;;19.57;57.09;102618.72;5051465;28;20037;-63
2022/07/09 04:57:06;;;;;;;22.70;18.17;;;;;;;19.60;57.33;102611.16;5051095;28;20049;-64
2022/07/09 04:59:32;;;;;;;25.38;18.40;;;;;;;19.60;57.45;102613.88;5051263;28;20491;-63
2022/07/09 05:01:59;;;;;;;27.75;21.67;;;;;;;19.64;57.64;102617.22;5051172;28;20044;-64
2022/07/09 05:04:51;;;;;;;30.83;26.00;;;;;;;19.69;57.94;102620.44;5050481;28;20406;-63
2022/07/09 05:07:17;;;;;;;33.22;27.23;;;;;;;19.75;57.68;102624.53;5055460;28;20068;-64
2022/07/09 05:09:44;;;;;;;32.28;24.70;;;;;;;19.79;58.04;102617.84;5054744;28;20140;-64
2022/07/09 05:12:11;;;;;;;40.28;27.58;;;;;;;19.85;58.24;102611.88;5054919;28;20397;-64
2022/07/09 05:14:38;;;;;;;33.15;26.60;;;;;;;19.91;58.21;102622.28;5055033;28;20052;-64
2022/07/09 05:17:06;;;;;;;34.40;27.92;;;;;;;19.97;58.37;102624.50;5054788;28;20075;-64
2022/07/09 05:19:32;;;;;;;32.60;27.13;;;;;;;20.04;58.26;102625.72;5054570;28;20033;-63
2022/07/09 05:21:59;;;;;;;33.63;27.90;;;;;;;20.11;58.70;102628.84;5054792;28;20060;-64
2022/07/09 05:24:29;;;;;;;31.52;26.65;;;;;;;20.15;58.49;102620.28;5054004;28;20052;-64
2022/07/09 05:26:55;;;;;;;33.95;24.88;;;;;;;20.21;58.48;102624.34;5054683;28;20057;-64
2022/07/09 05:29:22;;;;;;;29.52;23.50;;;;;;;20.26;58.57;102620.22;5054787;28;20061;-63
2022/07/09 05:31:49;;;;;;;31.05;24.25;;;;;;;20.34;59.07;102616.84;5054683;28;20069;-63
2022/07/09 05:34:16;;;;;;;35.33;24.02;;;;;;;20.40;58.75;102610.91;5054695;28;20041;-64
2022/07/09 05:36:43;;;;;;;31.10;24.95;;;;;;;20.47;59.23;102605.78;5053921;28;20045;-64
2022/07/09 05:39:10;;;;;;;30.00;23.05;;;;;;;20.55;59.38;102600.56;5054254;28;20044;-63
2022/07/09 05:41:36;;;;;;;31.13;23.50;;;;;;;20.66;59.51;102599.63;5054125;28;20033;-64
2022/07/09 05:44:04;;;;;;;31.17;24.55;;;;;;;20.77;59.50;102603.16;5054355;28;20041;-64
2022/07/09 05:46:31;;;;;;;29.83;23.83;;;;;;;20.86;59.67;102605.13;5053122;28;20045;-64
2022/07/09 05:48:58;;;;;;;31.95;24.95;;;;;;;20.94;59.74;102596.25;5054486;28;20045;-63
2022/07/09 05:51:24;;;;;;;35.35;25.17;;;;;;;21.02;59.55;102596.44;5053858;28;20049;-64
2022/07/09 05:53:51;;;;;;;37.47;26.15;;;;;;;21.09;59.85;102594.91;5054265;28;20033;-64
2022/07/09 05:56:18;;;;;;;39.72;28.08;;;;;;;21.16;59.57;102589.78;5054144;28;20124;-64
2022/07/09 05:58:45;;;;;;;37.50;29.10;;;;;;;21.22;59.83;102595.59;5054045;28;20501;-64
2022/07/09 06:01:12;;;;;;;36.25;27.67;;;;;;;21.30;60.00;102592.19;5054454;28;20041;-63
2022/07/09 06:03:40;;;;;;;37.92;27.90;;;;;;;21.39;59.88;102596.81;5054578;28;20041;-64
2022/07/09 06:06:07;;;;;;;37.13;27.60;;;;;;;21.47;59.74;102596.13;5053916;28;20045;-64
2022/07/09 06:08:34;;;;;;;39.22;28.67;;;;;;;21.55;59.95;102601.78;5053814;28;20410;-64
2022/07/09 06:11:01;;;;;;;33.60;27.75;;;;;;;21.65;59.81;102613.66;5054400;28;20049;-65
2022/07/09 06:13:28;;;;;;;35.80;27.77;;;;;;;21.75;59.72;102619.16;5054061;28;20487;-65
2022/07/09 06:15:55;;;;;;;30.70;24.35;;;;;;;21.84;59.40;102626.53;5052654;28;20045;-65
2022/07/09 06:18:22;;;;;;;30.65;26.15;;;;;;;21.89;59.30;102618.75;5054423;28;20093;-65
2022/07/09 06:20:49;;;;;;;30.90;25.50;;;;;;;21.94;59.01;102623.81;5055173;28;20045;-65
2022/07/09 06:23:21;;;;;;;32.78;26.58;;;;;;;21.98;59.48;102615.19;5054706;28;20463;-65
2022/07/09 06:25:47;;;;;;;34.22;25.85;;;;;;;22.03;59.21;102618.41;5054733;28;20506;-66
2022/07/09 06:28:14;;;;;;;33.35;27.05;;;;;;;22.08;59.25;102616.09;5055081;28;20043;-65
2022/07/09 06:30:40;;;;;;;35.88;27.67;;;;;;;22.15;59.10;102617.25;5055056;28;20139;-65
2022/07/09 06:33:09;;;;;;;35.33;27.25;;;;;;;22.20;59.16;102616.84;5055450;28;20055;-65
2022/07/09 06:35:35;;;;;;;30.02;25.42;;;;;;;22.27;58.87;102615.25;5057322;28;20037;-65
2022/07/09 06:38:02;;;;;;;33.58;26.80;;;;;;;22.30;58.77;102614.16;5054656;28;20049;-65
2022/07/09 06:40:29;;;;;;;40.63;26.73;;;;;;;22.33;58.79;102608.38;5053429;28;20447;-65
2022/07/09 06:43:00;;;;;;;33.25;24.27;;;;;;;22.40;59.10;102615.88;5054121;28;20402;-65
2022/07/09 06:45:43;;;;;;;31.65;23.70;;;;;;;22.52;58.69;102613.88;5053879;28;20568;-66
2022/07/09 06:48:10;;;;;;;28.08;23.40;;;;;;;22.56;58.51;102618.03;5053752;28;20064;-64
2022/07/09 06:50:37;;;;;;;27.33;22.02;;;;;;;22.59;58.55;102620.50;5053920;28;20056;-67
2022/07/09 06:53:07;;;;;;;28.98;22.55;;;;;;;22.61;58.81;102613.00;5053590;28;20372;-66
2022/07/09 06:55:34;;;;;;;29.02;21.73;;;;;;;22.67;58.75;102615.16;5053621;28;20041;-66
2022/07/09 06:58:00;;;;;;;27.23;21.15;;;;;;;22.72;58.74;102618.31;5053372;28;20395;-66
2022/07/09 07:00:27;;;;;;;26.05;20.90;;;;;;;22.80;58.35;102623.97;5053668;28;20048;-66
2022/07/09 07:02:59;;;;;;;26.25;21.67;;;;;;;22.91;58.56;102622.06;5053706;28;20040;-66
2022/07/09 07:05:27;;;;;;;22.20;18.50;;;;;;;23.01;58.17;102609.22;5053462;28;20060;-67
2022/07/09 07:07:53;;;;;;;22.52;19.77;;;;;;;23.13;57.71;102616.28;5053228;28;20045;-66
2022/07/09 07:10:23;;;;;;;22.98;18.52;;;;;;;23.20;57.80;102622.91;5053591;28;20068;-66
2022/07/09 07:12:55;;;;;;;20.83;17.30;;;;;;;23.23;57.73;102622.63;5053170;28;20049;-66
2022/07/09 07:15:21;;;;;;;21.98;17.63;;;;;;;23.29;57.57;102608.31;5051939;28;20053;-66
2022/07/09 07:17:48;;;;;;;24.98;19.15;;;;;;;23.36;57.39;102614.91;5053460;28;20045;-66
2022/07/09 07:20:24;;;;;;;24.33;20.25;;;;;;;23.43;57.13;102613.31;5053339;28;20068;-66
2022/07/09 07:22:54;;;;;;;25.00;21.67;;;;;;;23.52;57.10;102607.94;5053540;28;20077;-65
2022/07/09 07:25:21;;;;;;;25.58;21.45;;;;;;;23.58;57.06;102615.59;5052763;28;20063;-66
2022/07/09 07:27:47;;;;;;;22.67;20.13;;;;;;;23.66;56.97;102615.69;5052290;28;20348;-67
2022/07/09 07:30:14;;;;;;;25.17;19.50;;;;;;;23.75;56.94;102614.78;5053304;28;20045;-66
2022/07/09 07:32:45;;;;;;;22.15;18.98;;;;;;;23.82;56.56;102615.94;5052970;28;20045;-66
2022/07/09 07:35:12;;;;;;;25.42;19.75;;;;;;;23.88;56.49;102623.56;5053022;28;20116;-66
2022/07/09 07:37:38;;;;;;;21.60;18.52;;;;;;;23.98;56.53;102620.75;5053045;28;20051;-66
2022/07/09 07:40:05;;;;;;;21.33;15.75;;;;;;;24.06;56.11;102618.97;5051355;28;20403;-66
2022/07/09 07:42:37;;;;;;;18.42;15.32;;;;;;;24.14;55.83;102622.81;5052468;28;20044;-66
2022/07/09 07:45:04;;;;;;;23.63;18.15;;;;;;;24.18;55.63;102616.00;5053068;28;20045;-66
2022/07/09 07:47:31;;;;;;;19.95;16.88;;;;;;;24.24;55.63;102621.72;5052692;28;20037;-66
2022/07/09 07:49:59;;;;;;;21.17;16.23;;;;;;;24.33;55.60;102619.97;5052938;28;20052;-66
2022/07/09 07:52:30;;;;;;;18.77;15.38;;;;;;;24.42;55.09;102619.03;5052193;28;20388;-67
2022/07/09 07:54:57;;;;;;;18.67;14.80;;;;;;;24.47;54.99;102622.16;5052881;28;20503;-66
2022/07/09 07:57:23;;;;;;;21.83;15.52;;;;;;;24.48;54.58;102615.63;5052517;28;20037;-66
2022/07/09 07:59:50;;;;;;;17.52;15.55;;;;;;;24.49;54.70;102614.63;5052813;28;20037;-66
2022/07/09 08:02:17;;;;;;;19.05;15.77;;;;;;;24.55;54.90;102602.16;5052583;28;20045;-65
2022/07/09 08:04:47;;;;;;;18.38;15.88;;;;;;;24.62;54.50;102601.38;5052792;28;20052;-65
2022/07/09 08:07:14;;;;;;;19.85;15.45;;;;;;;24.63;54.15;102594.88;5052599;28;20124;-66
2022/07/09 08:09:41;;;;;;;20.05;16.85;;;;;;;24.72;54.42;102601.28;5052135;28;20404;-66
2022/07/09 08:12:08;;;;;;;19.13;16.08;;;;;;;24.85;54.14;102600.88;5051977;28;20395;-65
2022/07/09 08:14:35;;;;;;;20.33;16.33;;;;;;;24.95;53.61;102591.50;5051472;28;20124;-64
2022/07/09 08:17:01;;;;;;;19.10;15.88;;;;;;;25.06;53.59;102582.16;5050919;28;20033;-64
2022/07/09 08:19:28;;;;;;;18.92;15.55;;;;;;;25.18;53.56;102580.84;5051342;28;20045;-64
2022/07/09 08:21:58;;;;;;;16.67;14.45;;;;;;;25.33;53.38;102572.91;5051161;28;20552;-64
2022/07/09 08:24:27;;;;;;;16.55;13.77;;;;;;;25.45;53.16;102571.56;5051272;28;20044;-64
2022/07/09 08:26:53;;;;;;;15.60;13.55;;;;;;;25.54;52.69;102573.34;5050950;28;20089;-64
2022/07/09 08:29:20;;;;;;;18.45;14.35;;;;;;;25.59;52.49;102578.34;5051061;28;20067;-64
2022/07/09 08:31:49;;;;;;;16.17;13.48;;;;;;;25.68;52.26;102563.63;5050926;28;20395;-64
2022/07/09 08:34:16;;;;;;;15.70;13.18;;;;;;;25.80;52.41;102555.91;5051082;28;20082;-64
2022/07/09 08:36:44;;;;;;;15.35;13.50;;;;;;;25.91;52.19;102544.59;5051022;28;20079;-64
2022/07/09 08:39:11;;;;;;;13.77;12.30;;;;;;;26.00;51.69;102546.31;5054017;28;20103;-64
2022/07/09 08:41:38;;;;;;;14.43;11.40;;;;;;;26.09;51.67;102542.59;5054617;28;20037;-64
2022/07/09 08:44:11;;;;;;;15.77;13.60;;;;;;;26.26;51.34;102546.22;5055356;28;20053;-65
2022/07/09 08:46:38;;;;;;;15.70;12.52;;;;;;;26.43;51.11;102547.13;5055121;28;20487;-64
2022/07/09 08:49:08;;;;;;;14.15;12.65;;;;;;;26.57;50.64;102543.66;5054864;28;20087;-64
2022/07/09 08:51:36;;;;;;;14.52;12.80;;;;;;;26.64;50.24;102541.94;5054681;28;20041;-66
2022/07/09 08:54:05;;;;;;;14.07;12.60;;;;;;;26.73;49.93;102551.91;5054829;28;20068;-66
2022/07/09 08:56:31;;;;;;;14.90;11.73;;;;;;;26.75;49.61;102543.47;5054749;28;20456;-66
2022/07/09 08:58:58;;;;;;;15.23;12.82;;;;;;;26.73;49.28;102549.16;5054555;28;20061;-69
2022/07/09 09:01:25;;;;;;;16.27;12.77;;;;;;;26.73;49.38;102542.78;5054318;28;20140;-65
2022/07/09 09:03:57;;;;;;;16.98;12.88;;;;;;;26.76;49.12;102539.72;5055487;28;20041;-65
2022/07/09 09:06:23;;;;;;;13.70;11.52;;;;;;;26.81;49.21;102542.81;5055045;28;20053;-65
2022/07/09 09:08:55;;;;;;;16.45;12.88;;;;;;;26.89;49.07;102545.56;5059421;28;20135;-66
2022/07/09 09:11:23;;;;;;;12.23;11.02;;;;;;;26.94;48.96;102539.50;5034868;28;20148;-66
2022/07/09 09:13:54;;;;;;;14.82;12.45;;;;;;;27.01;48.86;102544.19;5042716;28;20040;-65
2022/07/09 09:16:22;;;;;;;11.43;10.27;;;;;;;27.05;48.08;102540.03;5054866;28;20063;-65
2022/07/09 09:18:52;;;;;;;12.60;10.43;;;;;;;27.05;47.74;102537.28;5054728;28;20045;-66
2022/07/09 09:21:21;;;;;;;11.40;10.20;;;;;;;27.08;47.95;102538.81;5054157;28;20585;-65
2022/07/09 09:23:57;;;;;;;11.20;10.10;;;;;;;27.11;47.89;102531.06;5053147;28;20060;-65
2022/07/09 09:26:25;;;;;;;12.35;9.27;;;;;;;27.17;47.94;102518.44;5054304;28;20037;-65
2022/07/09 09:28:54;;;;;;;10.60;9.50;;;;;;;27.24;47.61;102530.50;5054207;28;20041;-66
2022/07/09 09:31:33;;;;;;;10.88;9.77;;;;;;;27.30;47.05;102532.53;5054664;28;20049;-65
2022/07/09 09:34:09;;;;;;;11.85;10.65;;;;;;;27.35;47.00;102532.88;5054406;28;20064;-65
2022/07/09 09:36:40;;;;;;;13.05;11.48;;;;;;;27.37;46.73;102532.69;5054451;28;20555;-65
2022/07/09 09:39:11;;;;;;;13.70;12.40;;;;;;;27.39;46.80;102536.97;5054195;28;20048;-65
2022/07/09 09:41:39;;;;;;;14.63;11.77;;;;;;;27.42;46.76;102531.09;5054077;28;20040;-66
2022/07/09 09:44:11;;;;;;;14.18;12.68;;;;;;;27.44;46.38;102530.94;5054313;28;20502;-66
2022/07/09 09:46:39;;;;;;;15.73;12.07;;;;;;;27.41;46.58;102537.66;5053677;28;20029;-65
2022/07/09 09:49:08;;;;;;;14.18;11.70;;;;;;;27.42;46.58;102542.16;5053142;28;20044;-66
2022/07/09 09:51:45;;;;;;;18.17;13.02;;;;;;;27.44;46.34;102541.97;5054016;28;20041;-66
2022/07/09 09:54:18;;;;;;;13.35;11.88;;;;;;;27.43;46.33;102540.25;5054430;28;20047;-66
2022/07/09 09:56:45;;;;;;;13.77;12.27;;;;;;;27.38;46.19;102540.78;5053374;28;20474;-66
2022/07/09 09:59:12;;;;;;;12.63;11.02;;;;;;;27.35;46.16;102538.38;5053623;28;20080;-66
2022/07/09 10:01:43;;;;;;;15.57;11.95;;;;;;;27.32;46.24;102537.88;5053669;28;20036;-66
2022/07/09 10:04:12;;;;;;;21.73;12.85;;;;;;;27.33;46.28;102531.31;5054136;28;20072;-69
2022/07/09 10:06:40;;;;;;;15.98;12.15;;;;;;;27.37;46.26;102525.25;5054112;28;20498;-66
2022/07/09 10:09:11;;;;;;;15.25;12.52;;;;;;;27.49;46.57;102520.22;5053917;28;20045;-66
2022/07/09 10:11:43;;;;;;;15.43;12.18;;;;;;;27.65;46.66;102522.94;5052938;28;20072;-66
2022/07/09 10:14:28;;;;;;;14.65;12.80;;;;;;;27.84;46.53;102522.50;5053739;28;20048;-67
2022/07/09 10:16:55;;;;;;;15.20;13.25;;;;;;;28.04;46.41;102522.00;5053719;28;20053;-66
2022/07/09 10:19:25;;;;;;;17.77;13.15;;;;;;;28.17;46.13;102520.34;5053127;28;20060;-66
2022/07/09 10:21:59;;;;;;;16.75;12.82;;;;;;;28.29;45.65;102512.56;5053601;28;20049;-66
2022/07/09 10:24:33;;;;;;;15.60;13.95;;;;;;;28.38;45.59;102513.34;5053355;28;20056;-67
2022/07/09 10:27:08;;;;;;;19.52;14.20;;;;;;;28.43;45.31;102508.13;5053501;28;20037;-66
2022/07/09 10:29:36;;;;;;;16.40;12.98;;;;;;;28.41;45.18;102516.59;5052951;28;20085;-67
2022/07/09 10:32:04;;;;;;;15.35;13.27;;;;;;;28.36;45.12;102515.44;5053086;28;20060;-67
2022/07/09 10:34:51;;;;;;;12.13;10.85;;;;;;;28.29;44.91;102518.09;5052864;28;20117;-66
2022/07/09 10:37:30;;;;;;;14.07;10.73;;;;;;;28.27;44.86;102517.41;5053373;28;20110;-67
2022/07/09 10:39:56;;;;;;;14.48;11.38;;;;;;;28.30;44.79;102510.66;5052778;28;20402;-67
2022/07/09 10:42:23;;;;;;;13.30;11.90;;;;;;;28.27;44.57;102511.88;5052857;28;20040;-67
2022/07/09 10:44:53;;;;;;;14.80;12.25;;;;;;;28.20;44.43;102508.06;5052873;28;20048;-67
2022/07/09 10:47:20;;;;;;;14.15;12.05;;;;;;;28.16;44.60;102512.25;5053012;28;20033;-67
2022/07/09 10:49:46;;;;;;;12.93;11.38;;;;;;;28.11;44.50;102503.66;5052509;28;20059;-67
2022/07/09 10:52:13;;;;;;;13.23;10.93;;;;;;;28.07;44.65;102500.41;5052483;28;20044;-67
2022/07/09 10:54:48;;;;;;;13.20;11.80;;;;;;;28.03;44.63;102504.59;5052761;28;20045;-68
2022/07/09 10:57:15;;;;;;;;;;;;;;;28.04;44.81;102510.97;5053261;28;20041;-67
2022/07/09 10:59:47;;;;;;;13.07;10.88;;;;;;;28.07;44.62;102511.47;5052339;28;19931;-66
2022/07/09 11:02:21;;;;;;;11.85;9.88;;;;;;;28.02;44.32;102510.28;5052363;28;20041;-66
2022/07/09 11:04:50;;;;;;;11.32;10.13;;;;;;;27.98;44.65;102511.69;5052914;28;20057;-66
2022/07/09 11:07:25;;;;;;;11.55;9.20;;;;;;;28.03;44.58;102514.78;5052897;28;20399;-66
2022/07/09 11:09:52;;;;;;;13.40;9.73;;;;;;;28.10;44.61;102507.47;5052447;28;20090;-67
2022/07/09 11:12:20;;;;;;;10.63;9.52;;;;;;;28.15;44.47;102507.78;5052549;28;20507;-66
2022/07/09 11:14:49;;;;;;;12.45;10.82;;;;;;;28.15;44.41;102516.06;5051005;28;20049;-66
2022/07/09 11:17:17;;;;;;;9.70;8.45;;;;;;;28.11;44.37;102520.22;5052709;28;20411;-67
2022/07/09 11:19:44;;;;;;;9.23;6.95;;;;;;;28.04;44.13;102516.50;5051819;28;20154;-67